createdAt,value
2023-03-24T00:01:53.527Z,10.70
2023-03-24T00:04:20.393Z,9.77
2023-03-24T00:06:49.375Z,15.37
2023-03-24T00:09:17.136Z,10.13
2023-03-24T00:11:44.085Z,9.13
2023-03-24T00:14:12.299Z,12.30
2023-03-24T00:16:42.593Z,13.20
2023-03-24T00:19:10.825Z,10.50
2023-03-24T00:21:37.889Z,15.43
2023-03-24T00:24:08.028Z,10.80
2023-03-24T00:26:37.633Z,10.43
2023-03-24T00:29:07.134Z,13.80
2023-03-24T00:31:34.156Z,10.40
2023-03-24T00:34:02.992Z,10.33
2023-03-24T00:36:29.773Z,12.53
2023-03-24T00:38:57.987Z,9.70
2023-03-24T00:41:27.283Z,9.23
2023-03-24T00:43:59.501Z,10.77
2023-03-24T00:46:29.767Z,11.07
2023-03-24T00:49:06.252Z,13.40
2023-03-24T00:51:40.933Z,11.10
2023-03-24T00:54:10.882Z,8.90
2023-03-24T00:56:40.612Z,14.63
2023-03-24T00:59:10.469Z,12.23
2023-03-24T01:01:39.411Z,11.97
2023-03-24T01:04:07.139Z,13.53
2023-03-24T01:06:37.184Z,10.87
2023-03-24T01:09:05.649Z,12.97
2023-03-24T01:11:38.653Z,9.63
2023-03-24T01:14:05.948Z,9.50
2023-03-24T01:16:32.673Z,13.63
2023-03-24T01:18:59.513Z,11.07
2023-03-24T01:21:26.295Z,11.30
2023-03-24T01:23:54.219Z,14.50
2023-03-24T01:26:20.954Z,10.07
2023-03-24T01:28:47.642Z,14.03
2023-03-24T01:31:14.459Z,11.47
2023-03-24T01:33:41.242Z,13.77
2023-03-24T01:36:08.355Z,11.77
2023-03-24T01:38:35.489Z,10.77
2023-03-24T01:41:03.217Z,12.37
2023-03-24T01:43:31.804Z,11.87
2023-03-24T01:46:22.980Z,9.77
2023-03-24T01:48:52.384Z,10.33
2023-03-24T01:51:21.905Z,13.37
2023-03-24T01:54:04.864Z,10.50
2023-03-24T01:56:36.330Z,13.03
2023-03-24T01:59:08.008Z,9.23
2023-03-24T02:01:34.760Z,9.13
2023-03-24T02:04:05.964Z,10.87
2023-03-24T02:06:36.236Z,11.93
2023-03-24T02:09:03.980Z,9.87
2023-03-24T02:11:34.601Z,10.30
2023-03-24T02:14:02.237Z,12.67
2023-03-24T02:16:56.810Z,11.10
2023-03-24T02:19:56.085Z,11.90
2023-03-24T02:22:32.506Z,11.07
2023-03-24T02:25:30.640Z,7.87
2023-03-24T02:28:19.162Z,12.17
2023-03-24T02:30:48.431Z,11.17
2023-03-24T02:33:52.386Z,12.07
2023-03-24T02:36:43.248Z,12.17
2023-03-24T02:39:37.991Z,10.93
2023-03-24T02:42:10.384Z,9.03
2023-03-24T02:44:39.576Z,12.33
2023-03-24T02:47:31.574Z,11.53
2023-03-24T02:50:14.060Z,9.23
2023-03-24T02:52:47.177Z,13.03
2023-03-24T02:55:28.065Z,8.17
2023-03-24T02:57:57.420Z,9.23
2023-03-24T03:00:32.487Z,9.27
2023-03-24T03:03:08.305Z,9.80
2023-03-24T03:05:39.749Z,10.00
2023-03-24T03:08:12.561Z,11.70
2023-03-24T03:10:43.752Z,8.90
2023-03-24T03:13:20.021Z,9.80
2023-03-24T03:15:51.914Z,7.03
2023-03-24T03:18:31.080Z,10.20
2023-03-24T03:21:04.771Z,9.93
2023-03-24T03:23:45.818Z,7.43
2023-03-24T03:26:22.509Z,21.47
2023-03-24T03:28:58.041Z,13.93
2023-03-24T03:31:31.534Z,11.07
2023-03-24T03:34:32.050Z,11.80
2023-03-24T03:37:11.244Z,9.27
2023-03-24T03:39:48.094Z,10.37
2023-03-24T03:42:14.908Z,9.53
2023-03-24T03:44:41.774Z,9.30
2023-03-24T03:47:08.609Z,10.40
2023-03-24T03:49:36.646Z,11.33
2023-03-24T03:52:03.438Z,16.03
2023-03-24T03:54:31.689Z,13.57
2023-03-24T03:56:59.991Z,11.60
2023-03-24T03:59:35.673Z,8.93
2023-03-24T04:02:17.292Z,13.73
2023-03-24T04:04:56.265Z,9.20
2023-03-24T04:07:50.149Z,9.07
2023-03-24T04:10:27.602Z,13.53
2023-03-24T04:13:16.374Z,15.57
2023-03-24T04:15:51.635Z,10.27
2023-03-24T04:18:39.577Z,12.60
2023-03-24T04:21:15.660Z,11.90
2023-03-24T04:24:03.681Z,15.37
2023-03-24T04:26:54.790Z,10.70
2023-03-24T04:29:26.029Z,14.67
2023-03-24T04:32:43.256Z,10.20
2023-03-24T04:35:31.876Z,10.77
2023-03-24T04:38:06.382Z,19.53
2023-03-24T04:40:36.808Z,14.17
2023-03-24T04:43:07.487Z,14.03
2023-03-24T04:45:36.250Z,14.67
2023-03-24T04:48:08.727Z,17.07
2023-03-24T04:50:41.072Z,13.67
2023-03-24T04:53:09.348Z,13.90
2023-03-24T04:55:50.882Z,14.57
2023-03-24T04:58:18.887Z,16.40
2023-03-24T05:00:45.539Z,15.03
2023-03-24T05:03:14.245Z,20.10
2023-03-24T05:05:42.212Z,17.53
2023-03-24T05:08:10.724Z,16.10
2023-03-24T05:10:38.092Z,15.70
2023-03-24T05:13:06.074Z,15.17
2023-03-24T05:15:32.831Z,13.07
2023-03-24T05:18:00.688Z,15.60
2023-03-24T05:20:27.632Z,18.43
2023-03-24T05:22:54.270Z,14.60
2023-03-24T05:25:21.357Z,14.70
2023-03-24T05:27:48.646Z,14.63
2023-03-24T05:30:16.027Z,16.03
2023-03-24T05:32:44.262Z,16.80
2023-03-24T05:35:12.020Z,19.70
2023-03-24T05:37:38.727Z,18.10
2023-03-24T05:43:55.550Z,13.87
2023-03-24T05:46:24.518Z,29.70
2023-03-24T05:48:52.619Z,18.23
2023-03-24T05:51:19.394Z,16.07
2023-03-24T05:53:46.168Z,15.90
2023-03-24T05:56:12.826Z,17.60
2023-03-24T05:58:39.655Z,18.63
2023-03-24T06:01:08.166Z,15.83
2023-03-24T06:03:38.877Z,16.47
2023-03-24T06:06:08.877Z,20.77
2023-03-24T06:08:36.458Z,12.83
2023-03-24T06:11:03.755Z,22.67
2023-03-24T06:13:32.664Z,16.00
2023-03-24T06:16:02.186Z,20.90
2023-03-24T06:18:30.672Z,17.63
2023-03-24T06:20:57.334Z,21.67
2023-03-24T06:23:26.002Z,16.97
2023-03-24T06:25:53.767Z,20.27
2023-03-24T06:28:21.420Z,24.03
2023-03-24T06:30:49.119Z,19.83
2023-03-24T06:33:17.111Z,23.30
2023-03-24T06:35:44.044Z,21.93
2023-03-24T06:38:11.941Z,20.90
2023-03-24T06:40:38.646Z,17.63
2023-03-24T06:43:05.349Z,22.13
2023-03-24T06:45:31.977Z,19.57
2023-03-24T06:47:58.576Z,21.73
2023-03-24T06:50:26.999Z,17.87
2023-03-24T06:52:53.952Z,23.20
2023-03-24T06:55:22.397Z,22.03
2023-03-24T06:57:49.069Z,19.53
2023-03-24T07:00:16.317Z,21.77
2023-03-24T07:02:43.735Z,19.17
2023-03-24T07:05:11.420Z,17.67
2023-03-24T07:08:16.867Z,16.57
2023-03-24T07:10:25.005Z,16.93
2023-03-24T07:12:51.607Z,17.67
2023-03-24T07:15:22.972Z,26.07
2023-03-24T07:17:50.018Z,26.30
2023-03-24T07:20:16.699Z,23.93
2023-03-24T07:22:43.362Z,22.10
2023-03-24T07:25:09.988Z,22.10
2023-03-24T07:27:39.428Z,20.03
2023-03-24T07:30:09.147Z,18.47
2023-03-24T07:32:39.449Z,21.07
2023-03-24T07:35:11.734Z,20.93
2023-03-24T07:37:39.799Z,24.13
2023-03-24T07:40:11.264Z,19.50
2023-03-24T07:42:39.104Z,21.23
2023-03-24T07:45:09.123Z,20.63
2023-03-24T07:47:35.999Z,20.47
2023-03-24T07:50:04.404Z,24.00
2023-03-24T07:52:31.007Z,24.57
2023-03-24T07:54:57.633Z,24.60
2023-03-24T07:57:24.282Z,21.93
2023-03-24T07:59:51.064Z,22.50
2023-03-24T08:02:19.142Z,23.90
2023-03-24T08:04:46.889Z,29.07
2023-03-24T08:07:13.979Z,22.27
2023-03-24T08:09:40.944Z,19.43
2023-03-24T08:12:19.239Z,23.37
2023-03-24T08:14:47.174Z,18.83
2023-03-24T08:17:13.778Z,19.23
2023-03-24T08:19:52.096Z,20.93
2023-03-24T08:22:26.958Z,20.73
2023-03-24T08:24:53.586Z,18.77
2023-03-24T08:27:20.598Z,25.80
2023-03-24T08:29:47.204Z,23.30
2023-03-24T08:32:13.977Z,23.57
2023-03-24T08:34:40.588Z,26.30
2023-03-24T08:37:08.059Z,24.83
2023-03-24T08:39:36.006Z,20.07
2023-03-24T08:42:03.432Z,26.53
2023-03-24T08:44:32.797Z,18.63
2023-03-24T08:47:02.258Z,17.57
2023-03-24T08:49:28.893Z,20.90
2023-03-24T08:51:55.552Z,22.50
2023-03-24T08:54:23.935Z,20.13
2023-03-24T08:56:51.129Z,19.83
2023-03-24T08:59:18.028Z,17.30
2023-03-24T09:01:45.056Z,20.07
2023-03-24T09:04:11.953Z,22.83
2023-03-24T09:06:38.648Z,19.23
2023-03-24T09:09:05.369Z,17.47
2023-03-24T09:11:31.983Z,19.77
2023-03-24T09:13:59.040Z,17.63
2023-03-24T09:16:25.780Z,16.67
2023-03-24T09:18:52.574Z,22.93
2023-03-24T09:21:19.176Z,21.20
2023-03-24T09:23:45.975Z,18.10
2023-03-24T09:26:12.733Z,17.67
2023-03-24T09:28:39.324Z,17.57
2023-03-24T09:31:06.711Z,16.00
2023-03-24T09:33:34.962Z,16.33
2023-03-24T09:36:04.405Z,18.90
2023-03-24T09:38:31.419Z,16.77
2023-03-24T09:41:03.156Z,14.67
2023-03-24T09:43:48.234Z,12.90
2023-03-24T09:46:31.951Z,15.63
2023-03-24T09:48:58.653Z,15.13
2023-03-24T09:51:26.451Z,15.97
2023-03-24T09:54:16.185Z,17.70
2023-03-24T09:56:46.010Z,11.13
2023-03-24T09:59:34.772Z,15.17
2023-03-24T10:02:01.876Z,12.23
2023-03-24T10:04:32.232Z,12.53
2023-03-24T10:07:13.690Z,19.00
2023-03-24T10:09:40.316Z,15.30
2023-03-24T10:12:31.484Z,8.73
2023-03-24T10:15:07.004Z,13.97
2023-03-24T10:17:55.255Z,12.87
2023-03-24T10:21:00.859Z,10.00
2023-03-24T10:23:34.643Z,11.30
2023-03-24T10:26:26.500Z,7.17
2023-03-24T10:29:11.552Z,9.20
2023-03-24T10:31:39.165Z,11.97
2023-03-24T10:34:09.590Z,13.20
2023-03-24T10:36:38.550Z,11.07
2023-03-24T10:39:18.327Z,14.03
2023-03-24T10:41:48.512Z,11.53
2023-03-24T10:44:16.986Z,13.53
2023-03-24T10:46:47.218Z,16.13
2023-03-24T10:49:14.922Z,13.43
2023-03-24T10:51:54.122Z,13.50
2023-03-24T10:54:23.410Z,10.93
2023-03-24T10:57:05.954Z,10.43
2023-03-24T10:59:37.353Z,12.10
2023-03-24T11:02:09.901Z,11.33
2023-03-24T11:04:41.693Z,9.47
2023-03-24T11:07:16.243Z,9.57
2023-03-24T11:09:45.324Z,9.83
2023-03-24T11:12:23.553Z,9.47
2023-03-24T11:14:50.223Z,7.73
2023-03-24T11:17:17.104Z,7.63
2023-03-24T11:19:55.129Z,10.13
2023-03-24T11:22:22.373Z,8.37
2023-03-24T11:24:55.008Z,8.57
2023-03-24T11:27:21.734Z,9.40
2023-03-24T11:29:55.568Z,8.73
2023-03-24T11:32:28.134Z,8.73
2023-03-24T11:35:11.318Z,8.33
2023-03-24T11:37:38.144Z,8.20
2023-03-24T11:40:14.656Z,6.60
2023-03-24T11:42:46.617Z,6.70
2023-03-24T11:45:44.688Z,6.57
2023-03-24T11:48:24.762Z,4.87
2023-03-24T11:50:53.645Z,12.13
2023-03-24T11:53:25.585Z,6.33
2023-03-24T11:56:04.559Z,6.70
2023-03-24T11:58:46.471Z,9.47
2023-03-24T12:01:26.410Z,5.83
2023-03-24T12:04:11.357Z,12.03
2023-03-24T12:07:19.310Z,8.07
2023-03-24T12:10:07.749Z,4.83
2023-03-24T12:13:33.305Z,9.00
2023-03-24T12:16:33.985Z,9.80
2023-03-24T12:19:42.788Z,7.50
2023-03-24T12:22:21.270Z,5.03
2023-03-24T12:24:58.065Z,5.93
2023-03-24T12:27:39.542Z,5.47
2023-03-24T12:30:27.511Z,7.30
2023-03-24T12:33:15.896Z,5.87
2023-03-24T12:35:45.401Z,7.47
2023-03-24T12:38:19.710Z,6.07
2023-03-24T12:40:58.436Z,6.20
2023-03-24T12:43:56.750Z,5.60
2023-03-24T12:46:40.720Z,5.77
2023-03-24T12:49:22.893Z,7.47
2023-03-24T12:52:07.440Z,7.67
2023-03-24T12:54:55.384Z,9.90
2023-03-24T12:57:25.877Z,8.10
2023-03-24T13:00:13.107Z,5.43
2023-03-24T13:02:46.006Z,7.27
2023-03-24T13:05:21.691Z,7.97
2023-03-24T13:07:55.369Z,7.57
2023-03-24T13:10:26.925Z,5.50
2023-03-24T13:13:05.436Z,5.57
2023-03-24T13:15:38.942Z,5.13
2023-03-24T13:18:21.659Z,5.67
2023-03-24T13:20:55.902Z,12.53
2023-03-24T13:23:31.895Z,6.30
2023-03-24T13:26:43.444Z,3.60
2023-03-24T13:29:16.263Z,6.33
2023-03-24T13:31:50.453Z,3.70
2023-03-24T13:34:23.808Z,4.90
2023-03-24T13:37:00.177Z,3.40
2023-03-24T13:39:28.775Z,2.80
2023-03-24T13:41:58.350Z,3.17
2023-03-24T13:44:38.644Z,3.87
2023-03-24T13:47:18.881Z,5.83
2023-03-24T13:50:06.732Z,3.27
2023-03-24T13:52:40.086Z,3.83
2023-03-24T13:55:16.279Z,5.67
2023-03-24T13:57:55.884Z,3.77
2023-03-24T14:00:25.944Z,2.90
2023-03-24T14:03:20.819Z,7.30
2023-03-24T14:06:02.655Z,2.60
2023-03-24T14:08:41.517Z,5.70
2023-03-24T14:11:34.343Z,3.30
2023-03-24T14:14:13.268Z,5.03
2023-03-24T14:17:02.325Z,3.13
2023-03-24T14:20:07.349Z,4.60
2023-03-24T14:22:36.278Z,4.73
2023-03-24T14:25:16.867Z,7.70
2023-03-24T14:27:55.793Z,5.17
2023-03-24T14:30:26.197Z,4.70
2023-03-24T14:32:59.048Z,5.03
2023-03-24T14:36:01.712Z,3.60
2023-03-24T14:38:28.614Z,3.47
2023-03-24T14:41:06.086Z,2.93
2023-03-24T14:43:41.543Z,11.00
2023-03-24T14:46:20.434Z,4.57
2023-03-24T14:49:03.876Z,3.70
2023-03-24T14:51:39.182Z,3.93
2023-03-24T14:54:14.909Z,2.77
2023-03-24T14:56:43.430Z,4.87
2023-03-24T15:00:03.244Z,4.40
2023-03-24T15:02:36.629Z,2.77
2023-03-24T15:05:29.796Z,3.77
2023-03-24T15:08:11.170Z,3.73
2023-03-24T15:10:54.845Z,10.20
2023-03-24T15:13:30.388Z,10.60
2023-03-24T15:15:57.514Z,13.50
2023-03-24T15:18:25.803Z,6.73
2023-03-24T15:20:53.092Z,8.57
2023-03-24T15:23:31.345Z,14.63
2023-03-24T15:25:58.064Z,23.40
2023-03-24T15:28:28.503Z,22.77
2023-03-24T15:31:02.753Z,15.07
2023-03-24T15:33:31.327Z,14.77
2023-03-24T15:35:59.908Z,11.50
2023-03-24T15:38:33.685Z,10.20
2023-03-24T15:41:04.753Z,11.63
2023-03-24T15:43:41.621Z,12.60
2023-03-24T15:46:35.409Z,7.87
2023-03-24T15:49:04.145Z,8.77
2023-03-24T15:51:56.561Z,10.57
2023-03-24T15:54:44.974Z,8.10
2023-03-24T15:57:20.279Z,6.60
2023-03-24T15:59:51.499Z,6.83
2023-03-24T16:02:39.076Z,10.13
2023-03-24T16:05:17.713Z,8.47
2023-03-24T16:07:44.407Z,4.30
2023-03-24T16:10:42.980Z,13.47
2023-03-24T16:13:17.501Z,35.03
2023-03-24T16:16:11.448Z,31.63
2023-03-24T16:18:41.210Z,8.80
2023-03-24T16:21:13.738Z,6.40
2023-03-24T16:23:42.403Z,12.67
2023-03-24T16:26:23.765Z,25.07
2023-03-24T16:28:52.092Z,5.80
2023-03-24T16:31:25.592Z,17.33
2023-03-24T16:33:53.372Z,6.90
2023-03-24T16:36:23.531Z,10.73
2023-03-24T16:38:50.592Z,11.53
2023-03-24T16:41:17.516Z,3.77
2023-03-24T16:43:45.476Z,5.07
2023-03-24T16:46:32.520Z,9.67
2023-03-24T16:49:02.974Z,9.80
2023-03-24T16:51:32.172Z,8.03
2023-03-24T16:53:59.292Z,12.83
2023-03-24T16:56:26.682Z,6.83
2023-03-24T16:58:54.599Z,6.30
2023-03-24T17:01:29.995Z,12.40
2023-03-24T17:03:59.271Z,11.30
2023-03-24T17:06:28.367Z,14.47
2023-03-24T17:08:55.303Z,10.93
2023-03-24T17:11:56.729Z,11.73
2023-03-24T17:14:26.780Z,12.17
2023-03-24T17:16:53.791Z,11.70
2023-03-24T17:19:22.748Z,10.13
2023-03-24T17:21:57.284Z,14.33
2023-03-24T17:24:24.273Z,13.27
2023-03-24T17:26:51.259Z,8.20
2023-03-24T17:29:17.887Z,4.93
2023-03-24T17:31:44.669Z,6.80
2023-03-24T17:36:46.628Z,4.70
2023-03-24T17:39:17.984Z,4.60
2023-03-24T17:41:44.975Z,11.47
2023-03-24T17:44:11.609Z,34.10
2023-03-24T17:46:38.456Z,25.40
2023-03-24T17:49:05.306Z,22.60
2023-03-24T17:51:32.057Z,16.57
2023-03-24T17:53:59.921Z,16.40
2023-03-24T17:56:26.879Z,19.77
2023-03-24T17:58:55.088Z,16.93
2023-03-24T18:01:22.331Z,12.60
2023-03-24T18:03:55.571Z,12.30
2023-03-24T18:06:31.609Z,10.17
2023-03-24T18:08:58.293Z,17.60
2023-03-24T18:11:25.354Z,13.67
2023-03-24T18:13:52.108Z,10.93
2023-03-24T18:16:21.910Z,19.80
2023-03-24T18:18:50.981Z,7.77
2023-03-24T18:21:22.442Z,14.93
2023-03-24T18:23:53.278Z,14.40
2023-03-24T18:26:22.319Z,16.80
2023-03-24T18:28:51.800Z,11.27
2023-03-24T18:31:21.198Z,6.57
2023-03-24T18:33:49.172Z,13.87
2023-03-24T18:36:21.210Z,4.90
2023-03-24T18:38:50.513Z,9.70
2023-03-24T18:41:18.679Z,12.53
2023-03-24T18:43:48.288Z,8.63
2023-03-24T18:46:15.471Z,6.47
2023-03-24T18:48:43.389Z,5.40
2023-03-24T18:51:11.224Z,30.30
2023-03-24T18:53:38.251Z,24.83
2023-03-24T18:56:08.832Z,12.93
2023-03-24T18:58:38.259Z,11.93
2023-03-24T19:01:11.134Z,9.10
2023-03-24T19:03:39.399Z,11.63
2023-03-24T19:06:07.399Z,13.83
2023-03-24T19:08:35.997Z,12.50
2023-03-24T19:11:02.691Z,32.97
2023-03-24T19:13:29.637Z,21.43
2023-03-24T19:16:00.313Z,19.10
2023-03-24T19:18:27.309Z,17.80
2023-03-24T19:20:56.167Z,12.50
2023-03-24T19:23:26.580Z,15.87
2023-03-24T19:25:56.352Z,10.33
2023-03-24T19:28:24.965Z,21.43
2023-03-24T19:30:51.730Z,21.07
2023-03-24T19:33:18.314Z,24.13
2023-03-24T19:35:48.743Z,15.80
2023-03-24T19:38:17.166Z,17.10
2023-03-24T19:40:45.189Z,12.33
2023-03-24T19:43:11.913Z,14.87
2023-03-24T19:45:42.878Z,9.87
2023-03-24T19:48:10.290Z,12.10
2023-03-24T19:50:37.470Z,10.80
2023-03-24T19:53:04.174Z,8.50
2023-03-24T19:55:31.524Z,15.83
2023-03-24T19:57:59.605Z,12.13
2023-03-24T20:00:26.701Z,7.47
2023-03-24T20:02:53.687Z,11.80
2023-03-24T20:05:20.447Z,11.07
2023-03-24T20:07:47.296Z,9.13
2023-03-24T20:10:13.864Z,10.33
2023-03-24T20:12:40.584Z,11.53
2023-03-24T20:15:13.027Z,20.20
2023-03-24T20:17:40.733Z,12.53
2023-03-24T20:20:11.862Z,9.03
2023-03-24T20:22:42.315Z,15.23
2023-03-24T20:25:15.205Z,14.67
2023-03-24T20:27:42.126Z,14.20
2023-03-24T20:30:15.403Z,12.03
2023-03-24T20:32:42.215Z,8.73
2023-03-24T20:35:09.377Z,7.97
2023-03-24T20:37:39.063Z,11.00
2023-03-24T20:40:12.031Z,9.13
2023-03-24T20:42:40.874Z,11.30
2023-03-24T20:45:11.956Z,8.03
2023-03-24T20:47:38.792Z,9.87
2023-03-24T20:50:06.197Z,12.90
2023-03-24T20:52:32.871Z,13.10
2023-03-24T20:55:01.489Z,15.37
2023-03-24T20:57:30.267Z,17.23
2023-03-24T20:59:57.174Z,16.07
2023-03-24T21:02:24.006Z,13.13
2023-03-24T21:04:51.014Z,11.90
2023-03-24T21:07:20.471Z,11.10
2023-03-24T21:09:50.385Z,12.23
2023-03-24T21:12:17.026Z,14.17
2023-03-24T21:14:46.847Z,9.30
2023-03-24T21:17:13.701Z,12.30
2023-03-24T21:19:46.804Z,11.13
2023-03-24T21:22:15.403Z,6.47
2023-03-24T21:24:44.223Z,11.57
2023-03-24T21:27:10.856Z,11.97
2023-03-24T21:29:39.854Z,8.03
2023-03-24T21:32:06.568Z,8.57
2023-03-24T21:34:33.282Z,10.83
2023-03-24T21:37:02.348Z,11.60
2023-03-24T21:39:29.194Z,11.93
2023-03-24T21:41:55.852Z,11.17
2023-03-24T21:44:23.440Z,10.50
2023-03-24T21:46:50.168Z,9.13
2023-03-24T21:49:19.070Z,8.63
2023-03-24T21:51:46.820Z,12.77
2023-03-24T21:54:14.952Z,14.83
2023-03-24T21:56:42.155Z,12.23
2023-03-24T21:59:09.801Z,8.47
2023-03-24T22:01:37.087Z,10.13
2023-03-24T22:04:04.617Z,11.23
2023-03-24T22:06:37.792Z,9.07
2023-03-24T22:09:10.412Z,8.40
2023-03-24T22:11:42.679Z,12.93
2023-03-24T22:14:09.817Z,10.23
2023-03-24T22:16:36.741Z,13.47
2023-03-24T22:19:03.603Z,12.57
2023-03-24T22:21:30.253Z,10.83
2023-03-24T22:23:56.894Z,9.70
2023-03-24T22:26:23.510Z,10.43
2023-03-24T22:28:50.823Z,8.27
2023-03-24T22:31:17.401Z,11.87
2023-03-24T22:33:44.741Z,9.50
2023-03-24T22:36:12.039Z,11.30
2023-03-24T22:38:39.296Z,11.00
2023-03-24T22:41:08.349Z,10.40
2023-03-24T22:43:36.001Z,9.17
2023-03-24T22:46:03.468Z,12.93
2023-03-24T22:48:30.380Z,11.47
2023-03-24T22:50:57.065Z,13.10
2023-03-24T22:53:23.761Z,10.53
2023-03-24T22:55:51.690Z,7.63
2023-03-24T22:58:18.973Z,8.70
2023-03-24T23:00:48.414Z,14.03
2023-03-24T23:03:15.102Z,13.10
2023-03-24T23:05:43.723Z,10.27
2023-03-24T23:08:10.664Z,12.33
2023-03-24T23:10:39.134Z,13.23
2023-03-24T23:13:05.860Z,16.60
2023-03-24T23:15:32.687Z,8.57
2023-03-24T23:17:59.858Z,12.27
2023-03-24T23:20:28.296Z,11.80
2023-03-24T23:22:55.915Z,12.37
2023-03-24T23:25:23.030Z,12.60
2023-03-24T23:27:49.958Z,14.17
2023-03-24T23:30:16.900Z,15.00
2023-03-24T23:32:44.310Z,13.60
2023-03-24T23:35:11.698Z,13.67
2023-03-24T23:37:39.600Z,14.47
2023-03-24T23:40:12.877Z,13.97
2023-03-24T23:42:41.139Z,11.37
2023-03-24T23:45:09.380Z,14.10
2023-03-24T23:47:43.235Z,12.47
2023-03-24T23:50:10.743Z,12.60
2023-03-24T23:52:37.625Z,7.63
2023-03-24T23:55:04.836Z,7.83
2023-03-24T23:57:31.932Z,11.90
2023-03-24T23:59:59.956Z,14.00
